sensor_id;sensor_type;location;lat;lon;timestamp;P1;durP1;ratioP1;P2;durP2;ratioP2
79487;SDS011;68949;53.176;18.088;2023-04-08T00:00:19;35.60;;;18.90;;
79487;SDS011;68949;53.176;18.088;2023-04-08T00:03:06;32.20;;;17.70;;
79487;SDS011;68949;53.176;18.088;2023-04-08T00:05:33;31.70;;;18.30;;
79487;SDS011;68949;53.176;18.088;2023-04-08T00:08:00;28.30;;;15.20;;
79487;SDS011;68949;53.176;18.088;2023-04-08T00:10:26;30.60;;;15.30;;
79487;SDS011;68949;53.176;18.088;2023-04-08T00:12:53;32.30;;;16.30;;
79487;SDS011;68949;53.176;18.088;2023-04-08T00:15:21;29.60;;;15.80;;
79487;SDS011;68949;53.176;18.088;2023-04-08T00:17:48;33.40;;;17.40;;
79487;SDS011;68949;53.176;18.088;2023-04-08T00:20:14;32.60;;;18.30;;
79487;SDS011;68949;53.176;18.088;2023-04-08T00:22:41;28.30;;;15.90;;
79487;SDS011;68949;53.176;18.088;2023-04-08T00:25:08;26.30;;;14.80;;
79487;SDS011;68949;53.176;18.088;2023-04-08T00:27:34;27.60;;;14.70;;
79487;SDS011;68949;53.176;18.088;2023-04-08T00:30:01;27.70;;;14.20;;
79487;SDS011;68949;53.176;18.088;2023-04-08T00:32:29;24.50;;;13.00;;
79487;SDS011;68949;53.176;18.088;2023-04-08T00:34:55;29.60;;;14.20;;
79487;SDS011;68949;53.176;18.088;2023-04-08T00:37:22;26.60;;;14.70;;
79487;SDS011;68949;53.176;18.088;2023-04-08T00:39:50;25.50;;;14.20;;
79487;SDS011;68949;53.176;18.088;2023-04-08T00:42:19;24.60;;;12.80;;
79487;SDS011;68949;53.176;18.088;2023-04-08T00:44:47;24.10;;;12.80;;
79487;SDS011;68949;53.176;18.088;2023-04-08T00:47:14;28.50;;;12.70;;
79487;SDS011;68949;53.176;18.088;2023-04-08T00:49:43;27.00;;;14.20;;
79487;SDS011;68949;53.176;18.088;2023-04-08T00:52:10;23.20;;;12.70;;
79487;SDS011;68949;53.176;18.088;2023-04-08T00:54:37;24.80;;;14.80;;
79487;SDS011;68949;53.176;18.088;2023-04-08T00:57:04;25.70;;;14.00;;
79487;SDS011;68949;53.176;18.088;2023-04-08T00:59:32;22.50;;;12.90;;
79487;SDS011;68949;53.176;18.088;2023-04-08T01:05:02;21.00;;;11.80;;
79487;SDS011;68949;53.176;18.088;2023-04-08T01:07:37;20.00;;;10.30;;
79487;SDS011;68949;53.176;18.088;2023-04-08T01:10:18;19.10;;;10.10;;
79487;SDS011;68949;53.176;18.088;2023-04-08T01:13:00;18.20;;;10.00;;
79487;SDS011;68949;53.176;18.088;2023-04-08T01:15:32;20.80;;;11.60;;
79487;SDS011;68949;53.176;18.088;2023-04-08T01:18:05;17.90;;;9.80;;
79487;SDS011;68949;53.176;18.088;2023-04-08T01:20:33;17.20;;;9.30;;
79487;SDS011;68949;53.176;18.088;2023-04-08T01:23:39;16.50;;;9.50;;
79487;SDS011;68949;53.176;18.088;2023-04-08T01:26:25;17.10;;;9.90;;
79487;SDS011;68949;53.176;18.088;2023-04-08T01:28:55;16.90;;;9.00;;
79487;SDS011;68949;53.176;18.088;2023-04-08T01:31:25;14.90;;;7.90;;
79487;SDS011;68949;53.176;18.088;2023-04-08T01:33:53;14.60;;;9.00;;
79487;SDS011;68949;53.176;18.088;2023-04-08T01:36:22;15.40;;;9.00;;
79487;SDS011;68949;53.176;18.088;2023-04-08T01:38:51;17.40;;;9.60;;
79487;SDS011;68949;53.176;18.088;2023-04-08T01:41:19;15.70;;;8.70;;
79487;SDS011;68949;53.176;18.088;2023-04-08T01:43:47;13.90;;;8.10;;
79487;SDS011;68949;53.176;18.088;2023-04-08T01:46:15;16.30;;;9.30;;
79487;SDS011;68949;53.176;18.088;2023-04-08T01:48:43;15.10;;;8.80;;
79487;SDS011;68949;53.176;18.088;2023-04-08T01:51:11;17.30;;;10.20;;
79487;SDS011;68949;53.176;18.088;2023-04-08T01:53:38;17.00;;;9.50;;
79487;SDS011;68949;53.176;18.088;2023-04-08T01:56:10;17.00;;;8.40;;
79487;SDS011;68949;53.176;18.088;2023-04-08T01:58:42;12.40;;;6.50;;
79487;SDS011;68949;53.176;18.088;2023-04-08T02:01:16;12.60;;;7.40;;
79487;SDS011;68949;53.176;18.088;2023-04-08T02:03:46;13.50;;;6.40;;
79487;SDS011;68949;53.176;18.088;2023-04-08T02:06:14;12.90;;;7.20;;
79487;SDS011;68949;53.176;18.088;2023-04-08T02:08:40;12.20;;;6.60;;
79487;SDS011;68949;53.176;18.088;2023-04-08T02:11:07;13.20;;;6.70;;
79487;SDS011;68949;53.176;18.088;2023-04-08T02:13:34;13.60;;;7.30;;
79487;SDS011;68949;53.176;18.088;2023-04-08T02:16:33;12.80;;;7.10;;
79487;SDS011;68949;53.176;18.088;2023-04-08T02:19:24;10.20;;;6.10;;
79487;SDS011;68949;53.176;18.088;2023-04-08T02:22:02;11.10;;;6.10;;
79487;SDS011;68949;53.176;18.088;2023-04-08T02:24:33;9.50;;;4.90;;
79487;SDS011;68949;53.176;18.088;2023-04-08T02:27:02;9.20;;;5.40;;
79487;SDS011;68949;53.176;18.088;2023-04-08T02:29:31;10.20;;;5.30;;
79487;SDS011;68949;53.176;18.088;2023-04-08T02:32:00;10.90;;;5.40;;
79487;SDS011;68949;53.176;18.088;2023-04-08T02:34:29;11.10;;;6.20;;
79487;SDS011;68949;53.176;18.088;2023-04-08T02:36:56;9.80;;;5.70;;
79487;SDS011;68949;53.176;18.088;2023-04-08T02:39:31;9.60;;;5.00;;
79487;SDS011;68949;53.176;18.088;2023-04-08T02:41:58;9.10;;;5.20;;
79487;SDS011;68949;53.176;18.088;2023-04-08T02:44:24;10.00;;;5.30;;
79487;SDS011;68949;53.176;18.088;2023-04-08T02:46:51;7.30;;;4.20;;
79487;SDS011;68949;53.176;18.088;2023-04-08T02:49:18;7.90;;;4.00;;
79487;SDS011;68949;53.176;18.088;2023-04-08T02:51:44;7.90;;;4.40;;
79487;SDS011;68949;53.176;18.088;2023-04-08T02:54:11;9.20;;;4.20;;
79487;SDS011;68949;53.176;18.088;2023-04-08T02:56:38;8.70;;;4.90;;
79487;SDS011;68949;53.176;18.088;2023-04-08T02:59:04;7.90;;;4.30;;
79487;SDS011;68949;53.176;18.088;2023-04-08T03:01:31;9.70;;;5.10;;
79487;SDS011;68949;53.176;18.088;2023-04-08T03:03:58;7.70;;;3.90;;
79487;SDS011;68949;53.176;18.088;2023-04-08T03:06:24;7.70;;;4.20;;
79487;SDS011;68949;53.176;18.088;2023-04-08T03:08:52;8.30;;;4.10;;
79487;SDS011;68949;53.176;18.088;2023-04-08T03:11:18;9.00;;;4.60;;
79487;SDS011;68949;53.176;18.088;2023-04-08T03:13:46;8.10;;;4.30;;
79487;SDS011;68949;53.176;18.088;2023-04-08T03:16:13;9.30;;;4.80;;
79487;SDS011;68949;53.176;18.088;2023-04-08T03:18:40;9.70;;;5.40;;
79487;SDS011;68949;53.176;18.088;2023-04-08T03:21:06;8.80;;;5.20;;
79487;SDS011;68949;53.176;18.088;2023-04-08T03:23:33;9.50;;;4.90;;
79487;SDS011;68949;53.176;18.088;2023-04-08T03:25:59;7.90;;;4.20;;
79487;SDS011;68949;53.176;18.088;2023-04-08T03:28:26;7.70;;;4.00;;
79487;SDS011;68949;53.176;18.088;2023-04-08T03:30:53;8.70;;;4.50;;
79487;SDS011;68949;53.176;18.088;2023-04-08T03:33:19;9.10;;;4.30;;
79487;SDS011;68949;53.176;18.088;2023-04-08T03:35:46;8.90;;;4.20;;
79487;SDS011;68949;53.176;18.088;2023-04-08T03:38:13;6.90;;;3.70;;
79487;SDS011;68949;53.176;18.088;2023-04-08T03:40:39;8.10;;;4.50;;
79487;SDS011;68949;53.176;18.088;2023-04-08T03:43:06;9.60;;;4.60;;
79487;SDS011;68949;53.176;18.088;2023-04-08T03:45:34;8.50;;;4.30;;
79487;SDS011;68949;53.176;18.088;2023-04-08T03:48:00;8.20;;;4.00;;
79487;SDS011;68949;53.176;18.088;2023-04-08T03:50:27;8.70;;;4.40;;
79487;SDS011;68949;53.176;18.088;2023-04-08T03:52:54;9.10;;;4.00;;
79487;SDS011;68949;53.176;18.088;2023-04-08T03:55:20;7.60;;;4.10;;
79487;SDS011;68949;53.176;18.088;2023-04-08T03:57:47;7.50;;;4.10;;
79487;SDS011;68949;53.176;18.088;2023-04-08T04:00:14;7.60;;;3.70;;
79487;SDS011;68949;53.176;18.088;2023-04-08T04:02:41;9.50;;;4.70;;
79487;SDS011;68949;53.176;18.088;2023-04-08T04:05:07;8.30;;;4.00;;
79487;SDS011;68949;53.176;18.088;2023-04-08T04:07:34;9.80;;;4.20;;
79487;SDS011;68949;53.176;18.088;2023-04-08T04:10:01;8.00;;;4.00;;
79487;SDS011;68949;53.176;18.088;2023-04-08T04:12:28;9.40;;;4.20;;
79487;SDS011;68949;53.176;18.088;2023-04-08T04:14:54;7.70;;;3.90;;
79487;SDS011;68949;53.176;18.088;2023-04-08T04:17:21;7.50;;;3.70;;
79487;SDS011;68949;53.176;18.088;2023-04-08T04:19:48;7.80;;;3.70;;
79487;SDS011;68949;53.176;18.088;2023-04-08T04:22:14;9.00;;;4.20;;
79487;SDS011;68949;53.176;18.088;2023-04-08T04:24:46;10.50;;;5.50;;
79487;SDS011;68949;53.176;18.088;2023-04-08T04:27:14;10.10;;;5.30;;
79487;SDS011;68949;53.176;18.088;2023-04-08T04:29:42;9.80;;;4.90;;
79487;SDS011;68949;53.176;18.088;2023-04-08T04:32:09;10.10;;;4.70;;
79487;SDS011;68949;53.176;18.088;2023-04-08T04:34:36;9.30;;;4.70;;
79487;SDS011;68949;53.176;18.088;2023-04-08T04:37:03;9.20;;;4.60;;
79487;SDS011;68949;53.176;18.088;2023-04-08T04:39:29;7.40;;;3.90;;
79487;SDS011;68949;53.176;18.088;2023-04-08T04:41:57;8.20;;;3.70;;
79487;SDS011;68949;53.176;18.088;2023-04-08T04:44:23;9.00;;;4.80;;
79487;SDS011;68949;53.176;18.088;2023-04-08T04:46:50;11.00;;;5.50;;
79487;SDS011;68949;53.176;18.088;2023-04-08T04:49:17;7.60;;;4.40;;
79487;SDS011;68949;53.176;18.088;2023-04-08T04:51:44;8.10;;;3.50;;
79487;SDS011;68949;53.176;18.088;2023-04-08T04:54:10;8.90;;;4.30;;
79487;SDS011;68949;53.176;18.088;2023-04-08T04:56:37;9.00;;;4.10;;
79487;SDS011;68949;53.176;18.088;2023-04-08T04:59:03;8.70;;;4.50;;
79487;SDS011;68949;53.176;18.088;2023-04-08T05:01:30;9.90;;;4.50;;
79487;SDS011;68949;53.176;18.088;2023-04-08T05:03:57;13.40;;;7.10;;
79487;SDS011;68949;53.176;18.088;2023-04-08T05:06:24;11.70;;;6.50;;
79487;SDS011;68949;53.176;18.088;2023-04-08T05:08:52;10.00;;;5.70;;
79487;SDS011;68949;53.176;18.088;2023-04-08T05:11:19;11.70;;;5.90;;
79487;SDS011;68949;53.176;18.088;2023-04-08T05:13:47;11.70;;;6.00;;
79487;SDS011;68949;53.176;18.088;2023-04-08T05:16:13;10.20;;;5.10;;
79487;SDS011;68949;53.176;18.088;2023-04-08T05:18:40;11.20;;;5.20;;
79487;SDS011;68949;53.176;18.088;2023-04-08T05:21:07;14.10;;;7.50;;
79487;SDS011;68949;53.176;18.088;2023-04-08T05:23:34;12.00;;;6.50;;
79487;SDS011;68949;53.176;18.088;2023-04-08T05:26:01;13.90;;;7.60;;
79487;SDS011;68949;53.176;18.088;2023-04-08T05:28:28;13.50;;;6.80;;
79487;SDS011;68949;53.176;18.088;2023-04-08T05:30:54;13.00;;;6.80;;
79487;SDS011;68949;53.176;18.088;2023-04-08T05:33:21;13.60;;;6.70;;
79487;SDS011;68949;53.176;18.088;2023-04-08T05:35:48;13.90;;;7.00;;
79487;SDS011;68949;53.176;18.088;2023-04-08T05:38:15;15.80;;;8.30;;
79487;SDS011;68949;53.176;18.088;2023-04-08T05:40:41;13.50;;;7.30;;
79487;SDS011;68949;53.176;18.088;2023-04-08T05:43:08;15.00;;;7.60;;
79487;SDS011;68949;53.176;18.088;2023-04-08T05:45:34;15.40;;;7.70;;
79487;SDS011;68949;53.176;18.088;2023-04-08T05:48:01;15.80;;;7.50;;
79487;SDS011;68949;53.176;18.088;2023-04-08T05:50:28;14.60;;;7.40;;
79487;SDS011;68949;53.176;18.088;2023-04-08T05:52:54;14.40;;;7.30;;
79487;SDS011;68949;53.176;18.088;2023-04-08T05:55:21;15.80;;;8.20;;
79487;SDS011;68949;53.176;18.088;2023-04-08T05:57:48;16.80;;;8.50;;
79487;SDS011;68949;53.176;18.088;2023-04-08T06:00:15;14.90;;;8.20;;
79487;SDS011;68949;53.176;18.088;2023-04-08T06:02:42;13.00;;;7.00;;
79487;SDS011;68949;53.176;18.088;2023-04-08T06:05:08;14.40;;;6.90;;
79487;SDS011;68949;53.176;18.088;2023-04-08T06:07:35;14.90;;;7.20;;
79487;SDS011;68949;53.176;18.088;2023-04-08T06:10:02;14.60;;;7.40;;
79487;SDS011;68949;53.176;18.088;2023-04-08T06:12:30;16.60;;;8.50;;
79487;SDS011;68949;53.176;18.088;2023-04-08T06:14:57;16.60;;;9.00;;
79487;SDS011;68949;53.176;18.088;2023-04-08T06:17:24;17.00;;;8.70;;
79487;SDS011;68949;53.176;18.088;2023-04-08T06:19:50;15.40;;;7.80;;
79487;SDS011;68949;53.176;18.088;2023-04-08T06:22:17;13.70;;;7.60;;
79487;SDS011;68949;53.176;18.088;2023-04-08T06:24:46;15.70;;;7.40;;
79487;SDS011;68949;53.176;18.088;2023-04-08T06:27:14;14.40;;;7.80;;
79487;SDS011;68949;53.176;18.088;2023-04-08T06:29:41;18.00;;;9.00;;
79487;SDS011;68949;53.176;18.088;2023-04-08T06:32:07;17.10;;;9.20;;
79487;SDS011;68949;53.176;18.088;2023-04-08T06:34:34;14.90;;;8.10;;
79487;SDS011;68949;53.176;18.088;2023-04-08T06:37:01;15.60;;;7.60;;
79487;SDS011;68949;53.176;18.088;2023-04-08T06:39:27;13.50;;;7.50;;
79487;SDS011;68949;53.176;18.088;2023-04-08T06:41:54;14.60;;;7.80;;
79487;SDS011;68949;53.176;18.088;2023-04-08T06:44:35;14.30;;;7.70;;
79487;SDS011;68949;53.176;18.088;2023-04-08T06:47:01;14.70;;;8.10;;
79487;SDS011;68949;53.176;18.088;2023-04-08T06:49:28;18.60;;;9.70;;
79487;SDS011;68949;53.176;18.088;2023-04-08T06:51:55;15.80;;;8.60;;
79487;SDS011;68949;53.176;18.088;2023-04-08T06:54:22;13.60;;;8.00;;
79487;SDS011;68949;53.176;18.088;2023-04-08T06:56:48;13.70;;;7.30;;
79487;SDS011;68949;53.176;18.088;2023-04-08T06:59:15;13.70;;;7.60;;
79487;SDS011;68949;53.176;18.088;2023-04-08T07:01:42;14.00;;;7.60;;
79487;SDS011;68949;53.176;18.088;2023-04-08T07:04:09;14.20;;;8.20;;
79487;SDS011;68949;53.176;18.088;2023-04-08T07:06:36;13.70;;;8.40;;
79487;SDS011;68949;53.176;18.088;2023-04-08T07:09:02;16.20;;;8.70;;
79487;SDS011;68949;53.176;18.088;2023-04-08T07:11:30;15.70;;;9.60;;
79487;SDS011;68949;53.176;18.088;2023-04-08T07:13:56;16.20;;;8.90;;
79487;SDS011;68949;53.176;18.088;2023-04-08T07:16:23;14.50;;;7.70;;
79487;SDS011;68949;53.176;18.088;2023-04-08T07:18:50;12.50;;;7.20;;
79487;SDS011;68949;53.176;18.088;2023-04-08T07:21:17;13.10;;;7.20;;
79487;SDS011;68949;53.176;18.088;2023-04-08T07:23:43;13.10;;;7.40;;
79487;SDS011;68949;53.176;18.088;2023-04-08T07:26:10;15.00;;;8.60;;
79487;SDS011;68949;53.176;18.088;2023-04-08T07:28:36;15.60;;;7.60;;
79487;SDS011;68949;53.176;18.088;2023-04-08T07:31:14;16.20;;;9.40;;
79487;SDS011;68949;53.176;18.088;2023-04-08T07:33:42;14.50;;;8.10;;
79487;SDS011;68949;53.176;18.088;2023-04-08T07:36:11;15.00;;;8.80;;
79487;SDS011;68949;53.176;18.088;2023-04-08T07:38:39;11.90;;;6.80;;
79487;SDS011;68949;53.176;18.088;2023-04-08T07:41:06;13.30;;;7.80;;
79487;SDS011;68949;53.176;18.088;2023-04-08T07:43:32;13.10;;;7.40;;
79487;SDS011;68949;53.176;18.088;2023-04-08T07:46:00;16.60;;;8.10;;
79487;SDS011;68949;53.176;18.088;2023-04-08T07:48:31;13.90;;;7.70;;
79487;SDS011;68949;53.176;18.088;2023-04-08T07:51:03;13.30;;;8.40;;
79487;SDS011;68949;53.176;18.088;2023-04-08T07:53:31;14.40;;;8.20;;
79487;SDS011;68949;53.176;18.088;2023-04-08T07:56:00;15.80;;;8.20;;
79487;SDS011;68949;53.176;18.088;2023-04-08T07:58:29;13.20;;;8.00;;
79487;SDS011;68949;53.176;18.088;2023-04-08T08:00:57;11.90;;;7.20;;
79487;SDS011;68949;53.176;18.088;2023-04-08T08:03:24;12.50;;;7.20;;
79487;SDS011;68949;53.176;18.088;2023-04-08T08:05:51;12.50;;;7.40;;
79487;SDS011;68949;53.176;18.088;2023-04-08T08:08:18;13.30;;;7.30;;
79487;SDS011;68949;53.176;18.088;2023-04-08T08:10:44;12.90;;;7.30;;
79487;SDS011;68949;53.176;18.088;2023-04-08T08:13:11;14.20;;;7.80;;
79487;SDS011;68949;53.176;18.088;2023-04-08T08:15:42;12.40;;;6.60;;
79487;SDS011;68949;53.176;18.088;2023-04-08T08:18:08;12.20;;;7.20;;
79487;SDS011;68949;53.176;18.088;2023-04-08T08:20:35;15.00;;;8.50;;
79487;SDS011;68949;53.176;18.088;2023-04-08T08:23:02;15.60;;;8.00;;
79487;SDS011;68949;53.176;18.088;2023-04-08T08:25:28;13.40;;;7.70;;
79487;SDS011;68949;53.176;18.088;2023-04-08T08:27:55;12.80;;;7.20;;
79487;SDS011;68949;53.176;18.088;2023-04-08T08:30:22;11.90;;;6.80;;
79487;SDS011;68949;53.176;18.088;2023-04-08T08:32:49;12.60;;;6.90;;
79487;SDS011;68949;53.176;18.088;2023-04-08T08:35:17;11.50;;;6.50;;
79487;SDS011;68949;53.176;18.088;2023-04-08T08:37:44;11.70;;;6.80;;
79487;SDS011;68949;53.176;18.088;2023-04-08T08:40:11;12.70;;;7.60;;
79487;SDS011;68949;53.176;18.088;2023-04-08T08:42:39;13.60;;;7.20;;
79487;SDS011;68949;53.176;18.088;2023-04-08T08:45:06;12.60;;;6.90;;
79487;SDS011;68949;53.176;18.088;2023-04-08T08:47:34;11.80;;;6.90;;
79487;SDS011;68949;53.176;18.088;2023-04-08T08:50:01;12.20;;;7.20;;
79487;SDS011;68949;53.176;18.088;2023-04-08T08:52:28;15.60;;;8.20;;
79487;SDS011;68949;53.176;18.088;2023-04-08T08:54:58;14.80;;;8.60;;
79487;SDS011;68949;53.176;18.088;2023-04-08T08:57:25;15.30;;;7.80;;
79487;SDS011;68949;53.176;18.088;2023-04-08T08:59:52;14.80;;;8.00;;
79487;SDS011;68949;53.176;18.088;2023-04-08T09:02:29;15.30;;;8.90;;
79487;SDS011;68949;53.176;18.088;2023-04-08T09:05:04;14.50;;;8.70;;
79487;SDS011;68949;53.176;18.088;2023-04-08T09:07:35;14.20;;;8.70;;
79487;SDS011;68949;53.176;18.088;2023-04-08T09:10:03;15.90;;;8.70;;
79487;SDS011;68949;53.176;18.088;2023-04-08T09:12:31;14.60;;;8.20;;
79487;SDS011;68949;53.176;18.088;2023-04-08T09:15:08;16.70;;;9.30;;
79487;SDS011;68949;53.176;18.088;2023-04-08T09:17:38;15.90;;;8.80;;
79487;SDS011;68949;53.176;18.088;2023-04-08T09:20:11;16.90;;;8.90;;
79487;SDS011;68949;53.176;18.088;2023-04-08T09:22:58;15.60;;;8.50;;
79487;SDS011;68949;53.176;18.088;2023-04-08T09:25:31;14.40;;;8.20;;
79487;SDS011;68949;53.176;18.088;2023-04-08T09:27:59;13.70;;;7.60;;
79487;SDS011;68949;53.176;18.088;2023-04-08T09:30:28;13.50;;;7.50;;
79487;SDS011;68949;53.176;18.088;2023-04-08T09:32:56;12.90;;;7.50;;
79487;SDS011;68949;53.176;18.088;2023-04-08T09:35:23;13.60;;;7.90;;
79487;SDS011;68949;53.176;18.088;2023-04-08T09:37:51;12.20;;;6.80;;
79487;SDS011;68949;53.176;18.088;2023-04-08T09:40:18;12.20;;;7.40;;
79487;SDS011;68949;53.176;18.088;2023-04-08T09:42:47;12.40;;;7.20;;
79487;SDS011;68949;53.176;18.088;2023-04-08T09:45:18;12.20;;;6.80;;
79487;SDS011;68949;53.176;18.088;2023-04-08T09:48:16;13.10;;;7.40;;
79487;SDS011;68949;53.176;18.088;2023-04-08T09:50:49;13.20;;;7.60;;
79487;SDS011;68949;53.176;18.088;2023-04-08T09:53:29;14.10;;;7.40;;
79487;SDS011;68949;53.176;18.088;2023-04-08T09:56:01;11.80;;;6.40;;
79487;SDS011;68949;53.176;18.088;2023-04-08T09:58:41;12.60;;;7.00;;
79487;SDS011;68949;53.176;18.088;2023-04-08T10:01:15;14.10;;;8.30;;
79487;SDS011;68949;53.176;18.088;2023-04-08T10:04:05;14.80;;;8.20;;
79487;SDS011;68949;53.176;18.088;2023-04-08T10:06:35;15.20;;;8.80;;
79487;SDS011;68949;53.176;18.088;2023-04-08T10:09:04;12.40;;;7.40;;
79487;SDS011;68949;53.176;18.088;2023-04-08T10:11:33;14.90;;;8.50;;
79487;SDS011;68949;53.176;18.088;2023-04-08T10:14:01;15.10;;;8.30;;
79487;SDS011;68949;53.176;18.088;2023-04-08T10:16:28;17.00;;;8.70;;
79487;SDS011;68949;53.176;18.088;2023-04-08T10:18:55;16.60;;;9.10;;
79487;SDS011;68949;53.176;18.088;2023-04-08T10:21:36;15.40;;;8.30;;
79487;SDS011;68949;53.176;18.088;2023-04-08T10:24:10;14.20;;;7.90;;
79487;SDS011;68949;53.176;18.088;2023-04-08T10:26:41;13.00;;;6.80;;
79487;SDS011;68949;53.176;18.088;2023-04-08T10:31:54;14.60;;;8.10;;
79487;SDS011;68949;53.176;18.088;2023-04-08T10:34:23;13.90;;;8.00;;
79487;SDS011;68949;53.176;18.088;2023-04-08T10:36:53;13.80;;;8.70;;
79487;SDS011;68949;53.176;18.088;2023-04-08T10:39:21;14.20;;;7.50;;
79487;SDS011;68949;53.176;18.088;2023-04-08T10:41:49;12.30;;;7.10;;
79487;SDS011;68949;53.176;18.088;2023-04-08T10:44:34;12.10;;;7.30;;
79487;SDS011;68949;53.176;18.088;2023-04-08T10:47:01;12.40;;;7.60;;
79487;SDS011;68949;53.176;18.088;2023-04-08T10:49:32;13.80;;;7.60;;
79487;SDS011;68949;53.176;18.088;2023-04-08T10:52:00;15.90;;;8.20;;
79487;SDS011;68949;53.176;18.088;2023-04-08T10:54:32;11.90;;;6.00;;
79487;SDS011;68949;53.176;18.088;2023-04-08T10:56:58;13.30;;;7.80;;
79487;SDS011;68949;53.176;18.088;2023-04-08T10:59:29;12.10;;;6.90;;
79487;SDS011;68949;53.176;18.088;2023-04-08T11:01:58;12.20;;;7.30;;
79487;SDS011;68949;53.176;18.088;2023-04-08T11:04:26;11.90;;;6.70;;
79487;SDS011;68949;53.176;18.088;2023-04-08T11:06:53;13.10;;;7.20;;
79487;SDS011;68949;53.176;18.088;2023-04-08T11:09:19;12.20;;;7.10;;
79487;SDS011;68949;53.176;18.088;2023-04-08T11:11:46;12.20;;;7.20;;
79487;SDS011;68949;53.176;18.088;2023-04-08T11:14:13;12.00;;;7.30;;
79487;SDS011;68949;53.176;18.088;2023-04-08T11:16:39;12.10;;;6.80;;
79487;SDS011;68949;53.176;18.088;2023-04-08T11:19:06;13.40;;;8.00;;
79487;SDS011;68949;53.176;18.088;2023-04-08T11:21:35;11.50;;;7.20;;
79487;SDS011;68949;53.176;18.088;2023-04-08T11:24:10;12.10;;;7.30;;
79487;SDS011;68949;53.176;18.088;2023-04-08T11:26:38;12.20;;;7.20;;
79487;SDS011;68949;53.176;18.088;2023-04-08T11:29:05;14.00;;;8.30;;
79487;SDS011;68949;53.176;18.088;2023-04-08T11:31:41;12.70;;;7.60;;
79487;SDS011;68949;53.176;18.088;2023-04-08T11:34:09;12.70;;;7.50;;
79487;SDS011;68949;53.176;18.088;2023-04-08T11:36:39;15.40;;;8.50;;
79487;SDS011;68949;53.176;18.088;2023-04-08T11:39:08;13.10;;;8.30;;
79487;SDS011;68949;53.176;18.088;2023-04-08T11:41:36;12.90;;;7.90;;
79487;SDS011;68949;53.176;18.088;2023-04-08T11:44:04;12.90;;;7.40;;
79487;SDS011;68949;53.176;18.088;2023-04-08T11:46:33;13.50;;;7.30;;
79487;SDS011;68949;53.176;18.088;2023-04-08T11:49:05;11.70;;;6.80;;
79487;SDS011;68949;53.176;18.088;2023-04-08T11:51:34;11.20;;;7.20;;
79487;SDS011;68949;53.176;18.088;2023-04-08T11:54:28;11.90;;;7.00;;
79487;SDS011;68949;53.176;18.088;2023-04-08T11:56:57;11.90;;;7.20;;
79487;SDS011;68949;53.176;18.088;2023-04-08T11:59:24;13.00;;;8.10;;
79487;SDS011;68949;53.176;18.088;2023-04-08T12:01:51;11.70;;;7.30;;
79487;SDS011;68949;53.176;18.088;2023-04-08T12:04:18;12.60;;;7.30;;
79487;SDS011;68949;53.176;18.088;2023-04-08T12:06:45;11.70;;;7.40;;
79487;SDS011;68949;53.176;18.088;2023-04-08T12:09:13;11.20;;;6.80;;
79487;SDS011;68949;53.176;18.088;2023-04-08T12:11:40;11.30;;;6.90;;
79487;SDS011;68949;53.176;18.088;2023-04-08T12:14:07;11.40;;;7.20;;
79487;SDS011;68949;53.176;18.088;2023-04-08T12:16:34;11.10;;;7.20;;
79487;SDS011;68949;53.176;18.088;2023-04-08T12:19:01;12.70;;;7.10;;
79487;SDS011;68949;53.176;18.088;2023-04-08T12:21:28;11.20;;;7.00;;
79487;SDS011;68949;53.176;18.088;2023-04-08T12:23:55;12.20;;;6.90;;
79487;SDS011;68949;53.176;18.088;2023-04-08T12:26:22;12.40;;;7.70;;
79487;SDS011;68949;53.176;18.088;2023-04-08T12:28:49;10.90;;;7.30;;
79487;SDS011;68949;53.176;18.088;2023-04-08T12:31:16;11.90;;;7.00;;
79487;SDS011;68949;53.176;18.088;2023-04-08T12:33:43;10.70;;;6.50;;
79487;SDS011;68949;53.176;18.088;2023-04-08T12:36:09;11.20;;;6.80;;
79487;SDS011;68949;53.176;18.088;2023-04-08T12:38:36;10.40;;;6.00;;
79487;SDS011;68949;53.176;18.088;2023-04-08T12:41:03;11.40;;;7.20;;
79487;SDS011;68949;53.176;18.088;2023-04-08T12:43:30;10.20;;;6.40;;
79487;SDS011;68949;53.176;18.088;2023-04-08T12:45:58;11.40;;;7.30;;
79487;SDS011;68949;53.176;18.088;2023-04-08T12:48:24;11.40;;;6.30;;
79487;SDS011;68949;53.176;18.088;2023-04-08T12:50:51;10.40;;;7.10;;
79487;SDS011;68949;53.176;18.088;2023-04-08T12:53:18;13.00;;;8.10;;
79487;SDS011;68949;53.176;18.088;2023-04-08T12:55:45;10.60;;;6.40;;
79487;SDS011;68949;53.176;18.088;2023-04-08T12:58:11;10.20;;;6.00;;
79487;SDS011;68949;53.176;18.088;2023-04-08T13:00:38;9.40;;;6.10;;
79487;SDS011;68949;53.176;18.088;2023-04-08T13:03:05;10.50;;;6.20;;
79487;SDS011;68949;53.176;18.088;2023-04-08T13:05:32;9.30;;;5.60;;
79487;SDS011;68949;53.176;18.088;2023-04-08T13:07:59;10.50;;;6.60;;
79487;SDS011;68949;53.176;18.088;2023-04-08T13:10:25;11.00;;;5.90;;
79487;SDS011;68949;53.176;18.088;2023-04-08T13:12:52;9.10;;;5.60;;
79487;SDS011;68949;53.176;18.088;2023-04-08T13:15:20;8.80;;;5.00;;
79487;SDS011;68949;53.176;18.088;2023-04-08T13:17:47;8.70;;;5.20;;
79487;SDS011;68949;53.176;18.088;2023-04-08T13:20:14;9.80;;;5.80;;
79487;SDS011;68949;53.176;18.088;2023-04-08T13:22:40;9.70;;;5.60;;
79487;SDS011;68949;53.176;18.088;2023-04-08T13:25:07;10.30;;;6.00;;
79487;SDS011;68949;53.176;18.088;2023-04-08T13:27:34;8.80;;;5.40;;
79487;SDS011;68949;53.176;18.088;2023-04-08T13:30:01;9.80;;;6.10;;
79487;SDS011;68949;53.176;18.088;2023-04-08T13:32:27;8.50;;;4.90;;
79487;SDS011;68949;53.176;18.088;2023-04-08T13:34:54;8.30;;;5.00;;
79487;SDS011;68949;53.176;18.088;2023-04-08T13:37:21;9.60;;;5.90;;
79487;SDS011;68949;53.176;18.088;2023-04-08T13:39:47;8.90;;;5.40;;
79487;SDS011;68949;53.176;18.088;2023-04-08T13:42:14;10.20;;;5.60;;
79487;SDS011;68949;53.176;18.088;2023-04-08T13:44:41;8.30;;;4.90;;
79487;SDS011;68949;53.176;18.088;2023-04-08T13:47:08;9.20;;;4.90;;
79487;SDS011;68949;53.176;18.088;2023-04-08T13:49:34;8.90;;;5.80;;
79487;SDS011;68949;53.176;18.088;2023-04-08T13:52:01;8.10;;;5.00;;
79487;SDS011;68949;53.176;18.088;2023-04-08T13:54:27;8.10;;;5.10;;
79487;SDS011;68949;53.176;18.088;2023-04-08T13:56:54;9.40;;;5.10;;
79487;SDS011;68949;53.176;18.088;2023-04-08T13:59:21;8.30;;;5.00;;
79487;SDS011;68949;53.176;18.088;2023-04-08T14:01:47;10.50;;;5.20;;
79487;SDS011;68949;53.176;18.088;2023-04-08T14:04:19;9.50;;;5.00;;
79487;SDS011;68949;53.176;18.088;2023-04-08T14:06:47;8.40;;;5.30;;
79487;SDS011;68949;53.176;18.088;2023-04-08T14:09:21;9.10;;;5.20;;
79487;SDS011;68949;53.176;18.088;2023-04-08T14:11:48;9.20;;;4.90;;
79487;SDS011;68949;53.176;18.088;2023-04-08T14:14:15;8.50;;;5.30;;
79487;SDS011;68949;53.176;18.088;2023-04-08T14:16:42;8.90;;;5.90;;
79487;SDS011;68949;53.176;18.088;2023-04-08T14:19:08;8.90;;;5.70;;
79487;SDS011;68949;53.176;18.088;2023-04-08T14:21:35;9.80;;;6.20;;
79487;SDS011;68949;53.176;18.088;2023-04-08T14:24:04;9.20;;;5.90;;
79487;SDS011;68949;53.176;18.088;2023-04-08T14:26:31;8.20;;;5.10;;
79487;SDS011;68949;53.176;18.088;2023-04-08T14:29:05;9.50;;;5.70;;
79487;SDS011;68949;53.176;18.088;2023-04-08T14:31:33;9.70;;;5.60;;
79487;SDS011;68949;53.176;18.088;2023-04-08T14:34:00;9.30;;;5.60;;
79487;SDS011;68949;53.176;18.088;2023-04-08T14:36:27;8.80;;;4.80;;